Time,TemperatureF,DewpointF,PressureIn,WindDirection,WindDirectionDegrees,WindSpeedMPH,WindSpeedGustMPH,Humidity,HourlyPrecipIn,Conditions,Clouds,dailyrainin,SoftwareType,DateUTC
2013-04-13 00:23:00,38.0,31.0,-100.00,SSW,209,0.0,3.0,76,0.00,,,0.13,,2013-04-13 04:23:00,
2013-04-13 00:33:00,38.0,31.0,-100.00,SSW,209,0.0,3.0,76,0.00,,,0.13,,2013-04-13 04:33:00,
2013-04-13 00:42:00,38.0,31.0,-100.00,SSW,209,0.0,3.0,76,0.00,,,0.13,,2013-04-13 04:42:00,
2013-04-13 00:53:00,38.0,31.0,-100.00,SSW,209,0.0,3.0,76,0.00,,,0.13,,2013-04-13 04:53:00,
2013-04-13 01:22:00,37.0,31.0,-100.00,SSW,195,2.0,3.0,79,0.00,,,0.13,,2013-04-13 05:22:00,
2013-04-13 01:32:00,37.0,31.0,-100.00,SSW,195,2.0,3.0,79,0.00,,,0.13,,2013-04-13 05:32:00,
2013-04-13 01:43:00,37.0,31.0,-100.00,SSW,195,2.0,3.0,79,0.00,,,0.13,,2013-04-13 05:43:00,
2013-04-13 01:52:00,37.0,31.0,-100.00,SSW,195,2.0,3.0,79,0.00,,,0.13,,2013-04-13 05:52:00,
2013-04-13 02:24:00,37.0,32.0,-100.00,SSW,209,3.0,4.0,82,0.00,,,0.06,,2013-04-13 06:24:00,
2013-04-13 02:35:00,37.0,32.0,-100.00,SSW,209,3.0,4.0,82,0.00,,,0.06,,2013-04-13 06:35:00,
2013-04-13 02:49:00,37.0,32.0,-100.00,SSW,209,3.0,4.0,82,0.00,,,0.06,,2013-04-13 06:49:00,
2013-04-13 03:25:00,36.0,31.0,-100.00,SW,232,3.0,5.0,82,0.00,,,0.06,,2013-04-13 07:25:00,
2013-04-13 03:35:00,36.0,31.0,-100.00,SW,232,3.0,5.0,82,0.00,,,0.06,,2013-04-13 07:35:00,
2013-04-13 03:45:00,36.0,31.0,-100.00,SW,232,3.0,5.0,82,0.00,,,0.06,,2013-04-13 07:45:00,
2013-04-13 03:54:00,36.0,31.0,-100.00,SW,232,3.0,5.0,82,0.00,,,0.06,,2013-04-13 07:54:00,
2013-04-13 04:26:00,36.0,32.0,-100.00,WSW,245,3.0,6.0,86,0.00,,,0.02,,2013-04-13 08:26:00,
2013-04-13 04:35:00,36.0,32.0,-100.00,WSW,245,3.0,6.0,86,0.00,,,0.02,,2013-04-13 08:35:00,
2013-04-13 04:46:00,36.0,32.0,-100.00,WSW,245,3.0,6.0,86,0.00,,,0.02,,2013-04-13 08:46:00,
2013-04-13 04:53:00,36.0,32.0,-100.00,WSW,245,3.0,6.0,86,0.00,,,0.02,,2013-04-13 08:53:00,
2013-04-13 05:25:00,35.0,31.0,-100.00,WSW,255,3.0,7.0,86,0.00,,,0.02,,2013-04-13 09:25:00,
2013-04-13 05:38:00,35.0,31.0,-100.00,WSW,255,3.0,7.0,86,0.00,,,0.02,,2013-04-13 09:38:00,
2013-04-13 05:52:00,35.0,31.0,-100.00,WSW,255,3.0,7.0,86,0.00,,,0.02,,2013-04-13 09:52:00,
2013-04-13 06:25:00,34.0,31.0,-100.00,WSW,255,2.0,7.0,90,0.00,,,0.01,,2013-04-13 10:25:00,
2013-04-13 06:38:00,34.0,31.0,-100.00,WSW,255,2.0,7.0,90,0.00,,,0.01,,2013-04-13 10:38:00,
2013-04-13 06:48:00,34.0,31.0,-100.00,WSW,255,2.0,7.0,90,0.00,,,0.01,,2013-04-13 10:48:00,
2013-04-13 06:54:00,34.0,31.0,-100.00,WSW,255,2.0,7.0,90,0.00,,,0.01,,2013-04-13 10:54:00,
2013-04-13 07:24:00,34.0,31.0,-100.00,SW,234,4.0,7.0,89,0.00,,,0.01,,2013-04-13 11:24:00,
2013-04-13 07:35:00,34.0,31.0,-100.00,SW,234,4.0,7.0,89,0.00,,,0.01,,2013-04-13 11:35:00,
2013-04-13 07:45:00,34.0,31.0,-100.00,SW,234,4.0,7.0,89,0.00,,,0.01,,2013-04-13 11:45:00,
2013-04-13 07:53:00,34.0,31.0,-100.00,SW,234,4.0,7.0,89,0.00,,,0.01,,2013-04-13 11:53:00,
2013-04-13 08:25:00,36.0,32.0,-100.00,SW,219,4.0,7.0,85,0.00,,,0.01,,2013-04-13 12:25:00,
2013-04-13 08:37:00,36.0,32.0,-100.00,SW,219,4.0,7.0,85,0.00,,,0.01,,2013-04-13 12:37:00,
2013-04-13 08:48:00,36.0,32.0,-100.00,SW,219,4.0,7.0,85,0.00,,,0.01,,2013-04-13 12:48:00,
2013-04-13 08:54:00,36.0,32.0,-100.00,SW,219,4.0,7.0,85,0.00,,,0.01,,2013-04-13 12:54:00,
2013-04-13 10:24:00,45.0,34.0,-100.00,WSW,247,6.0,14.0,65,-99.99,,,0.00,,2013-04-13 14:24:00,
2013-04-13 10:39:00,45.0,34.0,-100.00,WSW,247,6.0,14.0,65,-99.99,,,0.00,,2013-04-13 14:39:00,
2013-04-13 10:47:00,45.0,34.0,-100.00,WSW,247,6.0,14.0,65,-99.99,,,0.00,,2013-04-13 14:47:00,
2013-04-13 10:55:00,45.0,34.0,-100.00,WSW,247,6.0,14.0,65,-99.99,,,0.00,,2013-04-13 14:55:00,
2013-04-13 11:29:00,47.0,32.0,-100.00,SW,230,8.0,16.0,56,0.00,,,0.00,,2013-04-13 15:29:00,
2013-04-13 11:37:00,47.0,32.0,-100.00,SW,230,8.0,16.0,56,0.00,,,0.00,,2013-04-13 15:37:00,
2013-04-13 11:44:00,47.0,32.0,-100.00,SW,230,8.0,16.0,56,0.00,,,0.00,,2013-04-13 15:44:00,
2013-04-13 11:55:00,47.0,32.0,-100.00,SW,230,8.0,16.0,56,0.00,,,0.00,,2013-04-13 15:55:00,
2013-04-13 12:25:00,50.0,33.0,-100.00,WSW,252,7.0,17.0,52,0.00,,,0.00,,2013-04-13 16:25:00,
2013-04-13 12:36:00,50.0,33.0,-100.00,WSW,252,7.0,17.0,52,0.00,,,0.00,,2013-04-13 16:36:00,
2013-04-13 12:47:00,50.0,33.0,-100.00,WSW,252,7.0,17.0,52,0.00,,,0.00,,2013-04-13 16:47:00,
2013-04-13 12:57:00,52.0,32.0,-100.00,SW,233,8.0,16.0,47,0.00,,,0.00,,2013-04-13 16:57:00,
2013-04-13 13:25:00,52.0,32.0,-100.00,SW,233,8.0,16.0,47,0.00,,,0.00,,2013-04-13 17:25:00,
2013-04-13 13:38:00,52.0,32.0,-100.00,SW,233,8.0,16.0,47,0.00,,,0.00,,2013-04-13 17:38:00,
2013-04-13 13:44:00,52.0,32.0,-100.00,SW,233,8.0,16.0,47,0.00,,,0.00,,2013-04-13 17:44:00,
2013-04-13 14:25:00,55.0,33.0,-100.00,SW,214,9.0,20.0,44,0.00,,,0.00,,2013-04-13 18:25:00,
2013-04-13 14:33:00,55.0,33.0,-100.00,SW,214,9.0,20.0,44,0.00,,,0.00,,2013-04-13 18:33:00,
2013-04-13 14:42:00,55.0,33.0,-100.00,SW,214,9.0,20.0,44,0.00,,,0.00,,2013-04-13 18:42:00,
2013-04-13 14:52:00,55.0,33.0,-100.00,SW,214,9.0,20.0,44,0.00,,,0.00,,2013-04-13 18:52:00,
2013-04-13 15:23:00,58.0,34.0,-100.00,WSW,247,8.0,18.0,40,0.00,,,0.00,,2013-04-13 19:23:00,
2013-04-13 15:33:00,58.0,34.0,-100.00,WSW,247,8.0,18.0,40,0.00,,,0.00,,2013-04-13 19:33:00,
2013-04-13 15:42:00,58.0,34.0,-100.00,WSW,247,8.0,18.0,40,0.00,,,0.00,,2013-04-13 19:42:00,
2013-04-13 15:52:00,58.0,34.0,-100.00,WSW,247,8.0,18.0,40,0.00,,,0.00,,2013-04-13 19:52:00,
2013-04-13 16:22:00,59.0,33.0,-100.00,SW,233,9.0,23.0,38,0.00,,,0.00,,2013-04-13 20:22:00,
2013-04-13 16:32:00,59.0,33.0,-100.00,SW,233,9.0,23.0,38,0.00,,,0.00,,2013-04-13 20:32:00,
2013-04-13 16:42:00,59.0,33.0,-100.00,SW,233,9.0,23.0,38,0.00,,,0.00,,2013-04-13 20:42:00,
2013-04-13 16:52:00,59.0,33.0,-100.00,SW,233,9.0,23.0,38,0.00,,,0.00,,2013-04-13 20:52:00,
2013-04-13 17:22:00,61.0,33.0,-100.00,WSW,249,9.0,19.0,35,0.00,,,0.00,,2013-04-13 21:22:00,
2013-04-13 17:33:00,61.0,33.0,-100.00,WSW,249,9.0,19.0,35,0.00,,,0.00,,2013-04-13 21:33:00,
2013-04-13 17:43:00,61.0,33.0,-100.00,WSW,249,9.0,19.0,35,0.00,,,0.00,,2013-04-13 21:43:00,
2013-04-13 17:52:00,61.0,33.0,-100.00,WSW,249,9.0,19.0,35,0.00,,,0.00,,2013-04-13 21:52:00,
2013-04-13 18:23:00,61.0,32.0,-100.00,WSW,257,7.0,18.0,33,0.00,,,0.00,,2013-04-13 22:23:00,
2013-04-13 18:33:00,61.0,32.0,-100.00,WSW,257,7.0,18.0,33,0.00,,,0.00,,2013-04-13 22:33:00,
2013-04-13 18:42:00,61.0,32.0,-100.00,WSW,257,7.0,18.0,33,0.00,,,0.00,,2013-04-13 22:42:00,
2013-04-13 18:52:00,61.0,32.0,-100.00,WSW,257,7.0,18.0,33,0.00,,,0.00,,2013-04-13 22:52:00,
2013-04-13 19:22:00,59.0,29.0,-100.00,West,261,5.0,18.0,32,0.00,,,0.00,,2013-04-13 23:22:00,
2013-04-13 19:33:00,59.0,29.0,-100.00,West,261,5.0,18.0,32,0.00,,,0.00,,2013-04-13 23:33:00,
2013-04-13 19:42:00,59.0,29.0,-100.00,West,261,5.0,18.0,32,0.00,,,0.00,,2013-04-13 23:42:00,
2013-04-13 19:52:00,59.0,29.0,-100.00,West,261,5.0,18.0,32,0.00,,,0.00,,2013-04-13 23:52:00,
2013-04-13 21:23:00,51.0,31.0,-100.00,West,262,2.0,9.0,47,-99.99,,,0.00,,2013-04-14 01:23:00,
2013-04-13 21:32:00,51.0,31.0,-100.00,West,262,2.0,9.0,47,-99.99,,,0.00,,2013-04-14 01:32:00,
2013-04-13 21:42:00,51.0,31.0,-100.00,West,262,2.0,9.0,47,-99.99,,,0.00,,2013-04-14 01:42:00,
2013-04-13 21:52:00,51.0,31.0,-100.00,West,262,2.0,9.0,47,-99.99,,,0.00,,2013-04-14 01:52:00,
2013-04-13 22:22:00,48.0,31.0,-100.00,SW,224,2.0,4.0,51,0.00,,,0.00,,2013-04-14 02:22:00,
2013-04-13 22:33:00,48.0,31.0,-100.00,SW,224,2.0,4.0,51,0.00,,,0.00,,2013-04-14 02:33:00,
2013-04-13 22:42:00,48.0,31.0,-100.00,SW,224,2.0,4.0,51,0.00,,,0.00,,2013-04-14 02:42:00,
2013-04-13 22:52:00,48.0,31.0,-100.00,SW,224,2.0,4.0,51,0.00,,,0.00,,2013-04-14 02:52:00,
2013-04-13 23:22:00,46.0,31.0,-100.00,West,280,0.0,3.0,56,0.00,,,0.00,,2013-04-14 03:22:00,
2013-04-13 23:33:00,46.0,31.0,-100.00,West,280,0.0,3.0,56,0.00,,,0.00,,2013-04-14 03:33:00,
2013-04-13 23:42:00,46.0,31.0,-100.00,West,280,0.0,3.0,56,0.00,,,0.00,,2013-04-14 03:42:00,
2013-04-13 23:53:00,46.0,31.0,-100.00,West,280,0.0,3.0,56,0.00,,,0.00,,2013-04-14 03:53:00,